sensor_id;sensor_type;location;lat;lon;timestamp;temperature;humidity
46706;DHT22;33519;50.712;7.124;2022-12-07T00:01:15;4.40;99.90
46706;DHT22;33519;50.712;7.124;2022-12-07T00:03:44;4.40;99.90
46706;DHT22;33519;50.712;7.124;2022-12-07T00:06:12;4.40;99.90
46706;DHT22;33519;50.712;7.124;2022-12-07T00:08:39;4.30;99.90
46706;DHT22;33519;50.712;7.124;2022-12-07T00:11:11;4.40;99.90
46706;DHT22;33519;50.712;7.124;2022-12-07T00:13:39;4.40;99.90
46706;DHT22;33519;50.712;7.124;2022-12-07T00:16:13;4.40;99.90
46706;DHT22;33519;50.712;7.124;2022-12-07T00:18:40;4.50;99.90
46706;DHT22;33519;50.712;7.124;2022-12-07T00:21:19;4.50;99.90
46706;DHT22;33519;50.712;7.124;2022-12-07T00:23:47;4.50;99.90
46706;DHT22;33519;50.712;7.124;2022-12-07T00:28:48;4.50;99.90
46706;DHT22;33519;50.712;7.124;2022-12-07T00:31:16;4.50;99.90
46706;DHT22;33519;50.712;7.124;2022-12-07T00:33:43;4.50;99.90
46706;DHT22;33519;50.712;7.124;2022-12-07T00:36:14;4.50;99.90
46706;DHT22;33519;50.712;7.124;2022-12-07T00:38:41;4.60;99.90
46706;DHT22;33519;50.712;7.124;2022-12-07T00:41:14;4.60;99.90
46706;DHT22;33519;50.712;7.124;2022-12-07T00:43:43;4.60;99.90
46706;DHT22;33519;50.712;7.124;2022-12-07T00:46:09;4.60;99.90
46706;DHT22;33519;50.712;7.124;2022-12-07T00:48:36;4.70;99.90
46706;DHT22;33519;50.712;7.124;2022-12-07T00:51:03;4.70;99.90
46706;DHT22;33519;50.712;7.124;2022-12-07T00:53:30;4.70;99.90
46706;DHT22;33519;50.712;7.124;2022-12-07T00:56:07;4.70;99.90
46706;DHT22;33519;50.712;7.124;2022-12-07T00:58:34;4.70;99.90
46706;DHT22;33519;50.712;7.124;2022-12-07T01:01:01;4.70;99.90
46706;DHT22;33519;50.712;7.124;2022-12-07T01:03:29;4.70;99.90
46706;DHT22;33519;50.712;7.124;2022-12-07T01:05:56;4.70;99.90
46706;DHT22;33519;50.712;7.124;2022-12-07T01:08:24;4.70;99.90
46706;DHT22;33519;50.712;7.124;2022-12-07T01:10:59;4.80;99.90
46706;DHT22;33519;50.712;7.124;2022-12-07T01:13:26;4.80;99.90
46706;DHT22;33519;50.712;7.124;2022-12-07T01:15:57;4.80;99.90
46706;DHT22;33519;50.712;7.124;2022-12-07T01:18:25;4.80;99.90
46706;DHT22;33519;50.712;7.124;2022-12-07T01:21:24;4.80;99.90
46706;DHT22;33519;50.712;7.124;2022-12-07T01:23:51;4.80;99.90
46706;DHT22;33519;50.712;7.124;2022-12-07T01:26:23;4.80;99.90
46706;DHT22;33519;50.712;7.124;2022-12-07T01:28:51;4.80;99.90
46706;DHT22;33519;50.712;7.124;2022-12-07T01:31:20;4.80;99.90
46706;DHT22;33519;50.712;7.124;2022-12-07T01:33:50;4.80;99.90
46706;DHT22;33519;50.712;7.124;2022-12-07T01:36:18;4.80;99.90
46706;DHT22;33519;50.712;7.124;2022-12-07T01:38:46;4.80;99.90
46706;DHT22;33519;50.712;7.124;2022-12-07T01:41:14;4.80;99.90
46706;DHT22;33519;50.712;7.124;2022-12-07T01:46:28;4.80;99.90
46706;DHT22;33519;50.712;7.124;2022-12-07T01:48:55;4.80;99.90
46706;DHT22;33519;50.712;7.124;2022-12-07T01:51:22;4.80;99.90
46706;DHT22;33519;50.712;7.124;2022-12-07T01:53:48;4.80;99.90
46706;DHT22;33519;50.712;7.124;2022-12-07T01:56:19;4.90;99.90
46706;DHT22;33519;50.712;7.124;2022-12-07T01:58:47;4.90;99.90
46706;DHT22;33519;50.712;7.124;2022-12-07T02:01:14;4.90;99.90
46706;DHT22;33519;50.712;7.124;2022-12-07T02:03:43;4.90;99.90
46706;DHT22;33519;50.712;7.124;2022-12-07T02:06:13;4.90;99.90
46706;DHT22;33519;50.712;7.124;2022-12-07T02:08:42;4.90;99.90
46706;DHT22;33519;50.712;7.124;2022-12-07T02:11:09;4.90;99.90
46706;DHT22;33519;50.712;7.124;2022-12-07T02:13:38;4.90;99.90
46706;DHT22;33519;50.712;7.124;2022-12-07T02:18:43;5.00;99.90
46706;DHT22;33519;50.712;7.124;2022-12-07T02:21:38;4.90;99.90
46706;DHT22;33519;50.712;7.124;2022-12-07T02:24:30;4.90;99.90
46706;DHT22;33519;50.712;7.124;2022-12-07T02:27:39;4.90;99.90
46706;DHT22;33519;50.712;7.124;2022-12-07T02:30:16;4.90;99.90
46706;DHT22;33519;50.712;7.124;2022-12-07T02:33:00;4.90;99.90
46706;DHT22;33519;50.712;7.124;2022-12-07T02:35:40;4.90;99.90
46706;DHT22;33519;50.712;7.124;2022-12-07T02:38:31;4.90;99.90
46706;DHT22;33519;50.712;7.124;2022-12-07T02:41:16;4.90;99.90
46706;DHT22;33519;50.712;7.124;2022-12-07T02:43:50;4.90;99.90
46706;DHT22;33519;50.712;7.124;2022-12-07T02:46:23;4.90;99.90
46706;DHT22;33519;50.712;7.124;2022-12-07T02:48:54;4.90;99.90
46706;DHT22;33519;50.712;7.124;2022-12-07T02:51:21;4.90;99.90
46706;DHT22;33519;50.712;7.124;2022-12-07T02:53:48;4.90;99.90
46706;DHT22;33519;50.712;7.124;2022-12-07T03:04:53;4.90;99.90
46706;DHT22;33519;50.712;7.124;2022-12-07T03:15:33;4.90;99.90
46706;DHT22;33519;50.712;7.124;2022-12-07T03:18:04;4.90;99.90
46706;DHT22;33519;50.712;7.124;2022-12-07T03:20:32;4.90;99.90
46706;DHT22;33519;50.712;7.124;2022-12-07T03:23:00;4.90;99.90
46706;DHT22;33519;50.712;7.124;2022-12-07T03:25:29;4.80;99.90
46706;DHT22;33519;50.712;7.124;2022-12-07T03:27:58;4.80;99.90
46706;DHT22;33519;50.712;7.124;2022-12-07T03:30:49;4.80;99.90
46706;DHT22;33519;50.712;7.124;2022-12-07T03:33:56;4.80;99.90
46706;DHT22;33519;50.712;7.124;2022-12-07T03:36:32;4.80;99.90
46706;DHT22;33519;50.712;7.124;2022-12-07T03:39:21;4.80;99.90
46706;DHT22;33519;50.712;7.124;2022-12-07T03:41:49;4.80;99.90
46706;DHT22;33519;50.712;7.124;2022-12-07T03:47:15;4.80;99.90
46706;DHT22;33519;50.712;7.124;2022-12-07T03:52:47;4.80;99.90
46706;DHT22;33519;50.712;7.124;2022-12-07T03:55:25;4.70;99.90
46706;DHT22;33519;50.712;7.124;2022-12-07T03:57:56;4.70;99.90
46706;DHT22;33519;50.712;7.124;2022-12-07T04:00:24;4.80;99.90
46706;DHT22;33519;50.712;7.124;2022-12-07T04:02:51;4.70;99.90
46706;DHT22;33519;50.712;7.124;2022-12-07T04:05:18;4.70;99.90
46706;DHT22;33519;50.712;7.124;2022-12-07T04:07:45;4.70;99.90
46706;DHT22;33519;50.712;7.124;2022-12-07T04:10:12;4.80;99.90
46706;DHT22;33519;50.712;7.124;2022-12-07T04:12:39;4.80;99.90
46706;DHT22;33519;50.712;7.124;2022-12-07T04:15:06;4.80;99.90
46706;DHT22;33519;50.712;7.124;2022-12-07T04:17:33;4.80;99.90
46706;DHT22;33519;50.712;7.124;2022-12-07T04:20:00;4.80;99.90
46706;DHT22;33519;50.712;7.124;2022-12-07T04:22:27;4.80;99.90
46706;DHT22;33519;50.712;7.124;2022-12-07T04:24:53;4.80;99.90
46706;DHT22;33519;50.712;7.124;2022-12-07T04:27:20;4.80;99.90
46706;DHT22;33519;50.712;7.124;2022-12-07T04:29:47;4.80;99.90
46706;DHT22;33519;50.712;7.124;2022-12-07T04:32:13;4.80;99.90
46706;DHT22;33519;50.712;7.124;2022-12-07T04:34:40;4.80;99.90
46706;DHT22;33519;50.712;7.124;2022-12-07T04:37:06;4.80;99.90
46706;DHT22;33519;50.712;7.124;2022-12-07T04:39:33;4.70;99.90
46706;DHT22;33519;50.712;7.124;2022-12-07T04:42:00;4.80;99.90
46706;DHT22;33519;50.712;7.124;2022-12-07T04:46:56;4.80;99.90
46706;DHT22;33519;50.712;7.124;2022-12-07T04:49:24;4.80;99.90
46706;DHT22;33519;50.712;7.124;2022-12-07T04:51:52;4.80;99.90
46706;DHT22;33519;50.712;7.124;2022-12-07T04:54:18;4.80;99.90
46706;DHT22;33519;50.712;7.124;2022-12-07T04:56:45;4.80;99.90
46706;DHT22;33519;50.712;7.124;2022-12-07T04:59:13;4.80;99.90
46706;DHT22;33519;50.712;7.124;2022-12-07T05:01:40;4.80;99.90
46706;DHT22;33519;50.712;7.124;2022-12-07T05:04:07;4.70;99.90
46706;DHT22;33519;50.712;7.124;2022-12-07T05:06:34;4.70;99.90
46706;DHT22;33519;50.712;7.124;2022-12-07T05:09:02;4.70;99.90
46706;DHT22;33519;50.712;7.124;2022-12-07T05:11:29;4.70;99.90
46706;DHT22;33519;50.712;7.124;2022-12-07T05:16:36;4.70;99.90
46706;DHT22;33519;50.712;7.124;2022-12-07T05:19:03;4.70;99.90
46706;DHT22;33519;50.712;7.124;2022-12-07T05:21:30;4.70;99.90
46706;DHT22;33519;50.712;7.124;2022-12-07T05:23:57;4.60;99.90
46706;DHT22;33519;50.712;7.124;2022-12-07T05:26:23;4.60;99.90
46706;DHT22;33519;50.712;7.124;2022-12-07T05:28:51;4.60;99.90
46706;DHT22;33519;50.712;7.124;2022-12-07T05:31:18;4.60;99.90
46706;DHT22;33519;50.712;7.124;2022-12-07T05:33:45;4.60;99.90
46706;DHT22;33519;50.712;7.124;2022-12-07T05:36:12;4.60;99.90
46706;DHT22;33519;50.712;7.124;2022-12-07T05:38:38;4.60;99.90
46706;DHT22;33519;50.712;7.124;2022-12-07T05:41:06;4.60;99.90
46706;DHT22;33519;50.712;7.124;2022-12-07T05:43:33;4.60;99.90
46706;DHT22;33519;50.712;7.124;2022-12-07T05:46:00;4.60;99.90
46706;DHT22;33519;50.712;7.124;2022-12-07T05:48:26;4.60;99.90
46706;DHT22;33519;50.712;7.124;2022-12-07T05:50:53;4.60;99.90
46706;DHT22;33519;50.712;7.124;2022-12-07T05:53:20;4.60;99.90
46706;DHT22;33519;50.712;7.124;2022-12-07T05:55:48;4.70;99.90
46706;DHT22;33519;50.712;7.124;2022-12-07T05:58:15;4.70;99.90
46706;DHT22;33519;50.712;7.124;2022-12-07T06:01:11;4.60;99.90
46706;DHT22;33519;50.712;7.124;2022-12-07T06:03:38;4.60;99.90
46706;DHT22;33519;50.712;7.124;2022-12-07T06:06:05;4.70;99.90
46706;DHT22;33519;50.712;7.124;2022-12-07T06:08:31;4.70;99.90
46706;DHT22;33519;50.712;7.124;2022-12-07T06:10:58;4.60;99.90
46706;DHT22;33519;50.712;7.124;2022-12-07T06:13:43;4.60;99.90
46706;DHT22;33519;50.712;7.124;2022-12-07T06:16:13;4.60;99.90
46706;DHT22;33519;50.712;7.124;2022-12-07T06:18:39;4.60;99.90
46706;DHT22;33519;50.712;7.124;2022-12-07T06:21:06;4.60;99.90
46706;DHT22;33519;50.712;7.124;2022-12-07T06:23:33;4.60;99.90
46706;DHT22;33519;50.712;7.124;2022-12-07T06:25:59;4.60;99.90
46706;DHT22;33519;50.712;7.124;2022-12-07T06:28:26;4.60;99.90
46706;DHT22;33519;50.712;7.124;2022-12-07T06:31:02;4.70;99.90
46706;DHT22;33519;50.712;7.124;2022-12-07T06:33:29;4.60;99.90
46706;DHT22;33519;50.712;7.124;2022-12-07T06:35:55;4.60;99.90
46706;DHT22;33519;50.712;7.124;2022-12-07T06:38:22;4.70;99.90
46706;DHT22;33519;50.712;7.124;2022-12-07T06:40:49;4.60;99.90
46706;DHT22;33519;50.712;7.124;2022-12-07T06:43:15;4.60;99.90
46706;DHT22;33519;50.712;7.124;2022-12-07T06:45:42;4.60;99.90
46706;DHT22;33519;50.712;7.124;2022-12-07T06:48:09;4.50;99.90
46706;DHT22;33519;50.712;7.124;2022-12-07T06:50:36;4.50;99.90
46706;DHT22;33519;50.712;7.124;2022-12-07T06:53:02;4.50;99.90
46706;DHT22;33519;50.712;7.124;2022-12-07T06:55:29;4.40;99.90
46706;DHT22;33519;50.712;7.124;2022-12-07T06:57:56;4.40;99.90
46706;DHT22;33519;50.712;7.124;2022-12-07T07:00:22;4.30;99.90
46706;DHT22;33519;50.712;7.124;2022-12-07T07:02:49;4.30;99.90
46706;DHT22;33519;50.712;7.124;2022-12-07T07:05:16;4.30;99.90
46706;DHT22;33519;50.712;7.124;2022-12-07T07:07:43;4.30;99.90
46706;DHT22;33519;50.712;7.124;2022-12-07T07:10:29;4.30;99.90
46706;DHT22;33519;50.712;7.124;2022-12-07T07:12:56;4.30;99.90
46706;DHT22;33519;50.712;7.124;2022-12-07T07:15:23;4.30;99.90
46706;DHT22;33519;50.712;7.124;2022-12-07T07:17:50;4.30;99.90
46706;DHT22;33519;50.712;7.124;2022-12-07T07:20:17;4.30;99.90
46706;DHT22;33519;50.712;7.124;2022-12-07T07:22:44;4.20;99.90
46706;DHT22;33519;50.712;7.124;2022-12-07T07:25:12;4.20;99.90
46706;DHT22;33519;50.712;7.124;2022-12-07T07:27:38;4.30;99.90
46706;DHT22;33519;50.712;7.124;2022-12-07T07:30:06;4.20;99.90
46706;DHT22;33519;50.712;7.124;2022-12-07T07:32:32;4.30;99.90
46706;DHT22;33519;50.712;7.124;2022-12-07T07:34:59;4.30;99.90
46706;DHT22;33519;50.712;7.124;2022-12-07T07:37:26;4.30;99.90
46706;DHT22;33519;50.712;7.124;2022-12-07T07:39:52;4.30;99.90
46706;DHT22;33519;50.712;7.124;2022-12-07T07:42:19;4.30;99.90
46706;DHT22;33519;50.712;7.124;2022-12-07T07:44:46;4.30;99.90
46706;DHT22;33519;50.712;7.124;2022-12-07T07:47:12;4.40;99.90
46706;DHT22;33519;50.712;7.124;2022-12-07T07:49:39;4.30;99.90
46706;DHT22;33519;50.712;7.124;2022-12-07T07:52:13;4.40;99.90
46706;DHT22;33519;50.712;7.124;2022-12-07T07:54:39;4.40;99.90
46706;DHT22;33519;50.712;7.124;2022-12-07T07:57:06;4.50;99.90
46706;DHT22;33519;50.712;7.124;2022-12-07T07:59:35;4.50;99.90
46706;DHT22;33519;50.712;7.124;2022-12-07T08:02:02;4.50;99.90
46706;DHT22;33519;50.712;7.124;2022-12-07T08:04:29;4.60;99.90
46706;DHT22;33519;50.712;7.124;2022-12-07T08:06:56;4.60;99.90
46706;DHT22;33519;50.712;7.124;2022-12-07T08:09:23;4.60;99.90
46706;DHT22;33519;50.712;7.124;2022-12-07T08:11:50;4.60;99.90
46706;DHT22;33519;50.712;7.124;2022-12-07T08:14:16;4.70;99.90
46706;DHT22;33519;50.712;7.124;2022-12-07T08:16:43;4.60;99.90
46706;DHT22;33519;50.712;7.124;2022-12-07T08:19:09;4.70;99.90
46706;DHT22;33519;50.712;7.124;2022-12-07T08:21:37;4.70;99.90
46706;DHT22;33519;50.712;7.124;2022-12-07T08:24:04;4.70;99.90
46706;DHT22;33519;50.712;7.124;2022-12-07T08:26:30;4.60;99.90
46706;DHT22;33519;50.712;7.124;2022-12-07T08:28:57;4.50;99.90
46706;DHT22;33519;50.712;7.124;2022-12-07T08:31:24;4.60;99.90
46706;DHT22;33519;50.712;7.124;2022-12-07T08:33:51;4.50;99.90
46706;DHT22;33519;50.712;7.124;2022-12-07T08:36:17;4.50;99.90
46706;DHT22;33519;50.712;7.124;2022-12-07T08:38:44;4.60;99.90
46706;DHT22;33519;50.712;7.124;2022-12-07T08:41:32;4.60;99.90
46706;DHT22;33519;50.712;7.124;2022-12-07T08:43:58;4.70;99.90
46706;DHT22;33519;50.712;7.124;2022-12-07T08:46:33;4.80;99.90
46706;DHT22;33519;50.712;7.124;2022-12-07T08:49:22;4.80;99.90
46706;DHT22;33519;50.712;7.124;2022-12-07T08:51:51;4.90;99.90
46706;DHT22;33519;50.712;7.124;2022-12-07T08:54:18;5.00;99.90
46706;DHT22;33519;50.712;7.124;2022-12-07T08:56:46;5.10;99.90
46706;DHT22;33519;50.712;7.124;2022-12-07T08:59:17;5.10;99.90
46706;DHT22;33519;50.712;7.124;2022-12-07T09:01:47;5.10;99.90
46706;DHT22;33519;50.712;7.124;2022-12-07T09:04:13;5.10;99.90
46706;DHT22;33519;50.712;7.124;2022-12-07T09:06:40;5.00;99.90
46706;DHT22;33519;50.712;7.124;2022-12-07T09:09:08;4.90;99.90
46706;DHT22;33519;50.712;7.124;2022-12-07T09:11:35;5.00;99.90
46706;DHT22;33519;50.712;7.124;2022-12-07T09:14:02;5.00;99.90
46706;DHT22;33519;50.712;7.124;2022-12-07T09:16:29;5.10;99.90
46706;DHT22;33519;50.712;7.124;2022-12-07T09:18:55;5.10;99.90
46706;DHT22;33519;50.712;7.124;2022-12-07T09:21:22;5.10;99.90
46706;DHT22;33519;50.712;7.124;2022-12-07T09:23:49;5.20;99.90
46706;DHT22;33519;50.712;7.124;2022-12-07T09:26:16;5.20;99.90
46706;DHT22;33519;50.712;7.124;2022-12-07T09:28:42;5.20;99.90
46706;DHT22;33519;50.712;7.124;2022-12-07T09:31:09;5.50;99.90
46706;DHT22;33519;50.712;7.124;2022-12-07T09:33:59;5.60;99.90
46706;DHT22;33519;50.712;7.124;2022-12-07T09:36:28;5.60;99.90
46706;DHT22;33519;50.712;7.124;2022-12-07T09:38:55;5.50;99.90
46706;DHT22;33519;50.712;7.124;2022-12-07T09:41:23;5.50;99.90
46706;DHT22;33519;50.712;7.124;2022-12-07T09:43:50;5.50;99.90
46706;DHT22;33519;50.712;7.124;2022-12-07T09:46:19;5.50;99.90
46706;DHT22;33519;50.712;7.124;2022-12-07T09:48:47;5.40;99.90
46706;DHT22;33519;50.712;7.124;2022-12-07T09:51:20;5.50;99.90
46706;DHT22;33519;50.712;7.124;2022-12-07T09:53:53;5.60;99.90
46706;DHT22;33519;50.712;7.124;2022-12-07T09:56:20;5.70;99.90
46706;DHT22;33519;50.712;7.124;2022-12-07T09:58:48;5.70;99.90
46706;DHT22;33519;50.712;7.124;2022-12-07T10:01:18;5.80;99.90
46706;DHT22;33519;50.712;7.124;2022-12-07T10:03:50;5.90;99.90
46706;DHT22;33519;50.712;7.124;2022-12-07T10:06:17;6.10;99.90
46706;DHT22;33519;50.712;7.124;2022-12-07T10:08:44;6.20;99.90
46706;DHT22;33519;50.712;7.124;2022-12-07T10:11:11;6.30;99.90
46706;DHT22;33519;50.712;7.124;2022-12-07T10:13:43;6.30;99.90
46706;DHT22;33519;50.712;7.124;2022-12-07T10:18:51;6.20;99.90
46706;DHT22;33519;50.712;7.124;2022-12-07T10:21:26;6.20;99.90
46706;DHT22;33519;50.712;7.124;2022-12-07T10:24:14;6.10;99.90
46706;DHT22;33519;50.712;7.124;2022-12-07T10:32:01;6.90;99.90
46706;DHT22;33519;50.712;7.124;2022-12-07T10:34:37;6.90;99.90
46706;DHT22;33519;50.712;7.124;2022-12-07T10:42:31;6.80;99.90
46706;DHT22;33519;50.712;7.124;2022-12-07T11:05:19;6.80;99.90
46706;DHT22;33519;50.712;7.124;2022-12-07T11:08:01;6.80;99.90
46706;DHT22;33519;50.712;7.124;2022-12-07T11:16:29;6.80;99.90
46706;DHT22;33519;50.712;7.124;2022-12-07T11:19:21;6.70;99.90
46706;DHT22;33519;50.712;7.124;2022-12-07T11:22:00;6.60;99.90
46706;DHT22;33519;50.712;7.124;2022-12-07T11:27:37;6.40;99.90
46706;DHT22;33519;50.712;7.124;2022-12-07T11:30:28;6.50;99.90
46706;DHT22;33519;50.712;7.124;2022-12-07T11:33:15;6.70;99.90
46706;DHT22;33519;50.712;7.124;2022-12-07T11:38:47;6.80;99.90
46706;DHT22;33519;50.712;7.124;2022-12-07T11:41:22;6.80;99.90
46706;DHT22;33519;50.712;7.124;2022-12-07T11:47:07;7.70;99.90
46706;DHT22;33519;50.712;7.124;2022-12-07T11:49:54;8.20;99.90
46706;DHT22;33519;50.712;7.124;2022-12-07T11:52:45;7.60;99.90
46706;DHT22;33519;50.712;7.124;2022-12-07T11:55:26;7.90;99.90
46706;DHT22;33519;50.712;7.124;2022-12-07T11:58:04;8.20;99.90
46706;DHT22;33519;50.712;7.124;2022-12-07T12:00:35;8.00;99.90
46706;DHT22;33519;50.712;7.124;2022-12-07T12:03:17;7.90;99.90
46706;DHT22;33519;50.712;7.124;2022-12-07T12:05:46;7.70;99.90
46706;DHT22;33519;50.712;7.124;2022-12-07T12:08:26;7.50;99.90
46706;DHT22;33519;50.712;7.124;2022-12-07T12:11:21;7.20;99.90
46706;DHT22;33519;50.712;7.124;2022-12-07T12:19:59;7.30;99.90
46706;DHT22;33519;50.712;7.124;2022-12-07T12:22:48;7.20;99.90
46706;DHT22;33519;50.712;7.124;2022-12-07T12:27:48;7.00;99.90
46706;DHT22;33519;50.712;7.124;2022-12-07T12:30:26;7.30;99.90
46706;DHT22;33519;50.712;7.124;2022-12-07T12:33:02;7.10;99.90
46706;DHT22;33519;50.712;7.124;2022-12-07T12:35:36;6.90;99.90
46706;DHT22;33519;50.712;7.124;2022-12-07T12:40:48;6.60;99.90
46706;DHT22;33519;50.712;7.124;2022-12-07T12:43:41;6.60;99.90
46706;DHT22;33519;50.712;7.124;2022-12-07T12:51:46;6.20;99.90
46706;DHT22;33519;50.712;7.124;2022-12-07T12:54:31;6.20;99.90
46706;DHT22;33519;50.712;7.124;2022-12-07T12:59:57;6.30;99.90
46706;DHT22;33519;50.712;7.124;2022-12-07T13:02:54;6.40;99.90
46706;DHT22;33519;50.712;7.124;2022-12-07T13:05:24;6.30;99.90
46706;DHT22;33519;50.712;7.124;2022-12-07T13:08:01;6.50;99.90
46706;DHT22;33519;50.712;7.124;2022-12-07T13:29:14;6.20;99.90
46706;DHT22;33519;50.712;7.124;2022-12-07T13:31:54;6.10;99.90
46706;DHT22;33519;50.712;7.124;2022-12-07T13:36:57;6.10;99.90
46706;DHT22;33519;50.712;7.124;2022-12-07T13:39:26;6.00;99.90
46706;DHT22;33519;50.712;7.124;2022-12-07T13:41:55;5.90;99.90
46706;DHT22;33519;50.712;7.124;2022-12-07T13:44:24;5.90;99.90
46706;DHT22;33519;50.712;7.124;2022-12-07T13:49:27;5.90;99.90
46706;DHT22;33519;50.712;7.124;2022-12-07T13:51:55;5.90;99.90
46706;DHT22;33519;50.712;7.124;2022-12-07T13:54:33;5.90;99.90
46706;DHT22;33519;50.712;7.124;2022-12-07T13:57:00;6.00;99.90
46706;DHT22;33519;50.712;7.124;2022-12-07T13:59:26;5.90;99.90
46706;DHT22;33519;50.712;7.124;2022-12-07T14:01:53;6.00;99.90
46706;DHT22;33519;50.712;7.124;2022-12-07T14:04:32;6.00;99.90
46706;DHT22;33519;50.712;7.124;2022-12-07T14:07:00;6.00;99.90
46706;DHT22;33519;50.712;7.124;2022-12-07T14:09:29;6.00;99.90
46706;DHT22;33519;50.712;7.124;2022-12-07T14:11:57;6.00;99.90
46706;DHT22;33519;50.712;7.124;2022-12-07T14:14:30;5.90;99.90
46706;DHT22;33519;50.712;7.124;2022-12-07T14:17:17;5.90;99.90
46706;DHT22;33519;50.712;7.124;2022-12-07T14:19:48;5.80;99.90
46706;DHT22;33519;50.712;7.124;2022-12-07T14:22:29;5.70;99.90
46706;DHT22;33519;50.712;7.124;2022-12-07T14:27:59;5.60;99.90
46706;DHT22;33519;50.712;7.124;2022-12-07T14:30:31;5.60;99.90
46706;DHT22;33519;50.712;7.124;2022-12-07T14:33:01;5.50;99.90
46706;DHT22;33519;50.712;7.124;2022-12-07T14:35:29;5.40;99.90
46706;DHT22;33519;50.712;7.124;2022-12-07T14:37:59;5.40;99.90
46706;DHT22;33519;50.712;7.124;2022-12-07T14:40:27;5.30;99.90
46706;DHT22;33519;50.712;7.124;2022-12-07T14:43:01;5.30;99.90
46706;DHT22;33519;50.712;7.124;2022-12-07T14:45:29;5.30;99.90
46706;DHT22;33519;50.712;7.124;2022-12-07T14:47:56;5.40;99.90
46706;DHT22;33519;50.712;7.124;2022-12-07T14:50:49;5.40;99.90
46706;DHT22;33519;50.712;7.124;2022-12-07T14:53:41;5.40;99.90
46706;DHT22;33519;50.712;7.124;2022-12-07T14:56:09;5.50;99.90
46706;DHT22;33519;50.712;7.124;2022-12-07T14:58:36;5.50;99.90
46706;DHT22;33519;50.712;7.124;2022-12-07T15:01:03;5.50;99.90
46706;DHT22;33519;50.712;7.124;2022-12-07T15:03:29;5.60;99.90
46706;DHT22;33519;50.712;7.124;2022-12-07T15:05:56;5.60;99.90
46706;DHT22;33519;50.712;7.124;2022-12-07T15:08:23;5.50;99.90
46706;DHT22;33519;50.712;7.124;2022-12-07T15:10:50;5.50;99.90
46706;DHT22;33519;50.712;7.124;2022-12-07T15:13:17;5.50;99.90
46706;DHT22;33519;50.712;7.124;2022-12-07T15:16:02;5.40;99.90
46706;DHT22;33519;50.712;7.124;2022-12-07T15:18:29;5.30;99.90
46706;DHT22;33519;50.712;7.124;2022-12-07T15:20:55;5.30;99.90
46706;DHT22;33519;50.712;7.124;2022-12-07T15:23:22;5.40;99.90
46706;DHT22;33519;50.712;7.124;2022-12-07T15:25:49;5.40;99.90
46706;DHT22;33519;50.712;7.124;2022-12-07T15:28:16;5.40;99.90
46706;DHT22;33519;50.712;7.124;2022-12-07T15:30:43;5.30;99.90
46706;DHT22;33519;50.712;7.124;2022-12-07T15:33:11;5.30;99.90
46706;DHT22;33519;50.712;7.124;2022-12-07T15:35:43;5.40;99.90
46706;DHT22;33519;50.712;7.124;2022-12-07T15:38:10;5.30;99.90
46706;DHT22;33519;50.712;7.124;2022-12-07T15:40:38;5.40;99.90
46706;DHT22;33519;50.712;7.124;2022-12-07T15:43:05;5.30;99.90
46706;DHT22;33519;50.712;7.124;2022-12-07T15:45:54;5.40;99.90
46706;DHT22;33519;50.712;7.124;2022-12-07T15:48:27;5.40;99.90
46706;DHT22;33519;50.712;7.124;2022-12-07T15:51:02;5.40;99.90
46706;DHT22;33519;50.712;7.124;2022-12-07T15:53:29;5.30;99.90
46706;DHT22;33519;50.712;7.124;2022-12-07T15:55:56;5.40;99.90
46706;DHT22;33519;50.712;7.124;2022-12-07T15:58:23;5.40;99.90
46706;DHT22;33519;50.712;7.124;2022-12-07T16:00:49;5.40;99.90
46706;DHT22;33519;50.712;7.124;2022-12-07T16:03:16;5.40;99.90
46706;DHT22;33519;50.712;7.124;2022-12-07T16:05:49;5.40;99.90
46706;DHT22;33519;50.712;7.124;2022-12-07T16:08:16;5.40;99.90
46706;DHT22;33519;50.712;7.124;2022-12-07T16:10:42;5.40;99.90
46706;DHT22;33519;50.712;7.124;2022-12-07T16:13:10;5.30;99.90
46706;DHT22;33519;50.712;7.124;2022-12-07T16:15:38;5.30;99.90
46706;DHT22;33519;50.712;7.124;2022-12-07T16:18:05;5.30;99.90
46706;DHT22;33519;50.712;7.124;2022-12-07T16:20:32;5.30;99.90
46706;DHT22;33519;50.712;7.124;2022-12-07T16:22:59;5.30;99.90
46706;DHT22;33519;50.712;7.124;2022-12-07T16:25:26;5.30;99.90
46706;DHT22;33519;50.712;7.124;2022-12-07T16:27:52;5.30;99.90
46706;DHT22;33519;50.712;7.124;2022-12-07T16:30:19;5.30;99.90
46706;DHT22;33519;50.712;7.124;2022-12-07T16:32:46;5.30;99.90
46706;DHT22;33519;50.712;7.124;2022-12-07T16:35:13;5.30;99.90
46706;DHT22;33519;50.712;7.124;2022-12-07T16:37:42;5.30;99.90
46706;DHT22;33519;50.712;7.124;2022-12-07T16:40:09;5.30;99.90
46706;DHT22;33519;50.712;7.124;2022-12-07T16:42:36;5.30;99.90
46706;DHT22;33519;50.712;7.124;2022-12-07T16:45:03;5.30;99.90
46706;DHT22;33519;50.712;7.124;2022-12-07T16:47:30;5.20;99.90
46706;DHT22;33519;50.712;7.124;2022-12-07T16:49:57;5.30;99.90
46706;DHT22;33519;50.712;7.124;2022-12-07T16:52:24;5.30;99.90
46706;DHT22;33519;50.712;7.124;2022-12-07T16:54:50;5.30;99.90
46706;DHT22;33519;50.712;7.124;2022-12-07T16:57:17;5.30;99.90
46706;DHT22;33519;50.712;7.124;2022-12-07T16:59:49;5.20;99.90
46706;DHT22;33519;50.712;7.124;2022-12-07T17:02:16;5.20;99.90
46706;DHT22;33519;50.712;7.124;2022-12-07T17:04:43;5.20;99.90
46706;DHT22;33519;50.712;7.124;2022-12-07T17:07:10;5.10;99.90
46706;DHT22;33519;50.712;7.124;2022-12-07T17:09:37;5.00;99.90
46706;DHT22;33519;50.712;7.124;2022-12-07T17:12:03;5.00;99.90
46706;DHT22;33519;50.712;7.124;2022-12-07T17:14:32;4.90;99.90
46706;DHT22;33519;50.712;7.124;2022-12-07T17:17:17;4.90;99.90
46706;DHT22;33519;50.712;7.124;2022-12-07T17:19:44;4.90;99.90
46706;DHT22;33519;50.712;7.124;2022-12-07T17:22:14;4.80;99.90
46706;DHT22;33519;50.712;7.124;2022-12-07T17:24:40;4.80;99.90
46706;DHT22;33519;50.712;7.124;2022-12-07T17:27:07;4.80;99.90
46706;DHT22;33519;50.712;7.124;2022-12-07T17:29:34;4.80;99.90
46706;DHT22;33519;50.712;7.124;2022-12-07T17:32:01;4.80;99.90
46706;DHT22;33519;50.712;7.124;2022-12-07T17:34:28;4.80;99.90
46706;DHT22;33519;50.712;7.124;2022-12-07T17:36:54;4.80;99.90
46706;DHT22;33519;50.712;7.124;2022-12-07T17:39:21;4.80;99.90
46706;DHT22;33519;50.712;7.124;2022-12-07T17:41:48;4.70;99.90
46706;DHT22;33519;50.712;7.124;2022-12-07T17:44:33;4.70;99.90
46706;DHT22;33519;50.712;7.124;2022-12-07T17:47:00;4.70;99.90
46706;DHT22;33519;50.712;7.124;2022-12-07T17:49:29;4.70;99.90
46706;DHT22;33519;50.712;7.124;2022-12-07T17:51:56;4.70;99.90
46706;DHT22;33519;50.712;7.124;2022-12-07T17:54:41;4.70;99.90
46706;DHT22;33519;50.712;7.124;2022-12-07T17:57:08;4.70;99.90
46706;DHT22;33519;50.712;7.124;2022-12-07T17:59:35;4.70;99.90
46706;DHT22;33519;50.712;7.124;2022-12-07T18:02:02;4.60;99.90
46706;DHT22;33519;50.712;7.124;2022-12-07T18:04:29;4.60;99.90
46706;DHT22;33519;50.712;7.124;2022-12-07T18:06:55;4.60;99.90
46706;DHT22;33519;50.712;7.124;2022-12-07T18:09:22;4.60;99.90
46706;DHT22;33519;50.712;7.124;2022-12-07T18:11:49;4.60;99.90
46706;DHT22;33519;50.712;7.124;2022-12-07T18:14:16;4.70;99.90
46706;DHT22;33519;50.712;7.124;2022-12-07T18:16:43;4.70;99.90